createdAt,value
2023-04-30T00:00:10.932Z,99.90
2023-04-30T00:04:13.194Z,99.90
2023-04-30T00:08:15.273Z,99.90
2023-04-30T00:12:17.458Z,99.90
2023-04-30T00:16:19.689Z,99.90
2023-04-30T00:20:21.744Z,99.90
2023-04-30T00:24:23.820Z,99.90
2023-04-30T00:28:25.929Z,99.90
2023-04-30T00:32:27.989Z,99.90
2023-04-30T00:36:31.134Z,99.90
2023-04-30T00:40:35.291Z,99.80
2023-04-30T00:44:37.121Z,99.50
2023-04-30T00:48:39.320Z,99.80
2023-04-30T00:52:42.023Z,99.50
2023-04-30T00:56:43.973Z,99.20
2023-04-30T01:00:47.363Z,99.10
2023-04-30T01:04:50.515Z,99.10
2023-04-30T01:08:52.930Z,99.70
2023-04-30T01:13:23.620Z,99.90
2023-04-30T01:17:36.284Z,99.90
2023-04-30T01:21:41.649Z,99.90
2023-04-30T01:26:36.240Z,99.70
2023-04-30T01:30:40.792Z,99.90
2023-04-30T01:34:43.227Z,99.60
2023-04-30T01:39:22.767Z,99.90
2023-04-30T01:43:45.685Z,99.90
2023-04-30T01:47:54.214Z,99.90
2023-04-30T01:52:17.850Z,99.90
2023-04-30T01:56:27.889Z,99.90
2023-04-30T02:00:33.110Z,99.90
2023-04-30T02:04:35.148Z,99.90
2023-04-30T02:08:38.983Z,99.90
2023-04-30T02:12:41.415Z,99.90
2023-04-30T02:16:43.349Z,99.90
2023-04-30T02:20:45.405Z,99.90
2023-04-30T02:24:47.375Z,99.90
2023-04-30T02:28:49.712Z,99.90
2023-04-30T02:32:51.814Z,99.90
2023-04-30T02:36:53.871Z,99.90
2023-04-30T02:40:56.360Z,99.90
2023-04-30T02:44:58.145Z,99.70
2023-04-30T02:49:00.021Z,99.90
2023-04-30T02:53:02.119Z,99.70
2023-04-30T02:57:04.272Z,99.40
2023-04-30T03:01:06.231Z,99.90
2023-04-30T03:05:08.520Z,99.90
2023-04-30T03:09:10.611Z,99.90
2023-04-30T03:13:12.390Z,99.90
2023-04-30T03:17:14.337Z,99.90
2023-04-30T03:21:16.498Z,99.90
2023-04-30T03:25:18.555Z,99.90
2023-04-30T03:29:20.569Z,99.90
2023-04-30T03:33:23.053Z,99.90
2023-04-30T03:37:25.461Z,99.90
2023-04-30T03:41:27.449Z,99.90
2023-04-30T03:45:29.427Z,99.90
2023-04-30T03:49:31.380Z,99.90
2023-04-30T03:53:34.314Z,99.90
2023-04-30T03:57:36.523Z,99.90
2023-04-30T04:01:38.901Z,99.90
2023-04-30T04:05:40.999Z,99.70
2023-04-30T04:09:43.139Z,99.60
2023-04-30T04:13:45.898Z,99.30
2023-04-30T04:17:48.703Z,99.20
2023-04-30T04:21:50.719Z,99.10
2023-04-30T04:25:53.192Z,99.10
2023-04-30T04:29:56.115Z,99.20
2023-04-30T04:34:03.425Z,99.80
2023-04-30T04:38:05.847Z,99.60
2023-04-30T04:42:08.417Z,99.60
2023-04-30T04:46:12.964Z,99.10
2023-04-30T04:50:16.463Z,99.30
2023-04-30T04:54:18.709Z,99.00
2023-04-30T04:58:20.800Z,99.30
2023-04-30T05:02:23.758Z,99.40
2023-04-30T05:06:27.112Z,99.30
2023-04-30T05:10:28.996Z,99.50
2023-04-30T05:14:30.790Z,99.50
2023-04-30T05:18:32.611Z,99.50
2023-04-30T05:22:34.538Z,99.70
2023-04-30T05:26:36.458Z,99.60
2023-04-30T05:30:38.464Z,99.90
2023-04-30T05:34:40.626Z,99.90
2023-04-30T05:38:42.648Z,99.90
2023-04-30T05:42:44.651Z,99.90
2023-04-30T05:46:46.748Z,99.90
2023-04-30T05:50:48.702Z,99.90
2023-04-30T05:54:51.966Z,99.90
2023-04-30T05:58:56.406Z,99.90
2023-04-30T06:02:58.261Z,99.90
2023-04-30T06:07:00.754Z,99.90
2023-04-30T06:11:05.103Z,99.90
2023-04-30T06:15:07.437Z,99.60
2023-04-30T06:19:09.266Z,99.60
2023-04-30T06:23:11.144Z,99.30
2023-04-30T06:27:13.008Z,98.90
2023-04-30T06:31:15.500Z,99.10
2023-04-30T06:35:17.568Z,98.20
2023-04-30T06:39:19.671Z,98.00
2023-04-30T06:43:21.996Z,97.70
2023-04-30T06:47:24.090Z,98.10
2023-04-30T06:51:26.483Z,98.40
2023-04-30T06:55:28.295Z,98.40
2023-04-30T06:59:30.177Z,97.70
2023-04-30T07:03:33.761Z,97.30
2023-04-30T07:07:36.859Z,97.50
2023-04-30T07:11:39.987Z,97.20
2023-04-30T07:15:42.244Z,97.80
2023-04-30T07:19:44.219Z,97.40
2023-04-30T07:23:46.092Z,97.20
2023-04-30T07:27:48.316Z,97.80
2023-04-30T07:31:50.927Z,97.40
2023-04-30T07:35:54.467Z,97.70
2023-04-30T07:39:57.175Z,97.10
2023-04-30T07:43:59.909Z,96.70
2023-04-30T07:48:02.086Z,96.30
2023-04-30T07:52:04.035Z,96.70
2023-04-30T07:56:05.941Z,95.90
2023-04-30T08:00:08.482Z,96.30
2023-04-30T08:04:15.527Z,96.40
2023-04-30T08:08:17.467Z,96.00
2023-04-30T08:12:19.424Z,96.00
2023-04-30T08:16:21.667Z,97.00
2023-04-30T08:20:23.627Z,96.80
2023-04-30T08:24:25.809Z,95.80
2023-04-30T08:28:27.990Z,95.50
2023-04-30T08:32:30.686Z,95.50
2023-04-30T08:36:32.675Z,94.90
2023-04-30T08:40:50.117Z,94.00
2023-04-30T08:44:53.295Z,94.90
2023-04-30T08:48:55.672Z,95.10
2023-04-30T08:53:01.897Z,95.00
2023-04-30T08:57:04.769Z,94.90
2023-04-30T09:01:09.001Z,94.60
2023-04-30T09:05:13.071Z,94.70
2023-04-30T09:09:16.195Z,94.50
2023-04-30T09:13:18.237Z,94.10
2023-04-30T09:17:23.439Z,93.90
2023-04-30T09:21:38.372Z,93.00
2023-04-30T09:25:43.326Z,93.40
2023-04-30T09:29:46.240Z,92.70
2023-04-30T09:33:48.542Z,92.60
2023-04-30T09:37:53.455Z,91.90
2023-04-30T09:42:08.298Z,92.40
2023-04-30T09:46:10.749Z,93.00
2023-04-30T09:50:13.983Z,91.80
2023-04-30T09:54:18.661Z,92.10
2023-04-30T09:58:20.828Z,92.40
2023-04-30T10:02:24.059Z,92.20
2023-04-30T10:06:29.801Z,92.90
2023-04-30T10:10:32.528Z,91.70
2023-04-30T10:14:35.245Z,91.40
2023-04-30T10:18:39.997Z,91.70
2023-04-30T10:22:43.682Z,91.50
2023-04-30T10:26:47.318Z,91.40
2023-04-30T10:30:51.517Z,91.40
2023-04-30T10:35:06.335Z,91.70
2023-04-30T10:39:08.678Z,90.80
2023-04-30T10:43:11.511Z,90.30
2023-04-30T10:47:13.840Z,90.60
2023-04-30T10:51:16.110Z,90.50
2023-04-30T10:55:18.583Z,90.60
2023-04-30T10:59:20.782Z,90.50
2023-04-30T11:03:22.953Z,90.30
2023-04-30T11:07:28.999Z,91.20
2023-04-30T11:11:36.403Z,91.50
2023-04-30T11:15:44.809Z,90.70
2023-04-30T11:19:48.690Z,90.20
2023-04-30T11:23:50.957Z,90.90
2023-04-30T11:27:56.222Z,91.30
2023-04-30T11:32:01.394Z,90.90
2023-04-30T11:36:03.777Z,90.80
2023-04-30T11:40:07.882Z,90.50
2023-04-30T11:44:27.055Z,90.40
2023-04-30T11:48:44.307Z,90.70
2023-04-30T11:52:51.605Z,90.30
2023-04-30T11:56:53.630Z,88.80
2023-04-30T12:01:02.103Z,89.50
2023-04-30T12:05:04.722Z,90.20
2023-04-30T12:09:09.116Z,91.10
2023-04-30T12:13:14.129Z,90.20
2023-04-30T12:17:32.285Z,89.60
2023-04-30T12:21:35.288Z,89.40
2023-04-30T12:25:45.115Z,90.00
2023-04-30T12:29:48.777Z,88.80
2023-04-30T12:33:55.574Z,88.40
2023-04-30T12:38:05.704Z,86.70
2023-04-30T12:42:08.169Z,88.30
2023-04-30T12:46:10.315Z,86.70
2023-04-30T12:50:12.636Z,84.90
2023-04-30T12:54:14.814Z,87.80
2023-04-30T12:58:16.728Z,89.70
2023-04-30T13:02:19.052Z,88.70
2023-04-30T13:06:24.405Z,86.00
2023-04-30T13:10:26.376Z,85.80
2023-04-30T13:14:28.469Z,85.90
2023-04-30T13:18:30.231Z,85.90
2023-04-30T13:22:32.232Z,86.90
2023-04-30T13:26:34.744Z,86.00
2023-04-30T13:30:36.904Z,86.90
2023-04-30T13:34:38.985Z,88.40
2023-04-30T13:38:41.764Z,86.00
2023-04-30T13:42:46.429Z,87.30
2023-04-30T13:46:48.400Z,87.10
2023-04-30T13:50:52.123Z,85.60
2023-04-30T13:54:54.215Z,86.20
2023-04-30T13:58:56.126Z,86.30
2023-04-30T14:02:58.029Z,85.10
2023-04-30T14:07:01.271Z,87.80
2023-04-30T14:11:03.173Z,86.40
2023-04-30T14:15:05.971Z,86.70
2023-04-30T14:19:07.818Z,86.00
2023-04-30T14:23:09.966Z,85.80
2023-04-30T14:27:12.161Z,87.00
2023-04-30T14:31:14.334Z,84.70
2023-04-30T14:35:16.514Z,83.80
2023-04-30T14:39:18.646Z,84.30
2023-04-30T14:43:20.666Z,84.60
2023-04-30T14:47:22.673Z,85.20
2023-04-30T14:51:24.571Z,86.90
2023-04-30T14:55:26.623Z,84.30
2023-04-30T14:59:28.681Z,84.00
2023-04-30T15:04:22.594Z,84.30
2023-04-30T15:08:24.441Z,85.90
2023-04-30T15:12:26.748Z,85.80
2023-04-30T15:16:29.685Z,86.80
2023-04-30T15:20:32.159Z,83.50
2023-04-30T15:24:34.557Z,83.30
2023-04-30T15:28:37.141Z,85.20
2023-04-30T15:32:39.528Z,87.60
2023-04-30T15:36:41.596Z,87.70
2023-04-30T15:40:43.814Z,85.50
2023-04-30T15:44:45.854Z,85.20
2023-04-30T15:48:47.672Z,84.90
2023-04-30T15:52:49.724Z,85.20
2023-04-30T15:56:51.682Z,84.40
2023-04-30T16:00:53.942Z,84.70
2023-04-30T16:04:55.897Z,84.40
2023-04-30T16:09:32.164Z,84.70
2023-04-30T16:13:34.690Z,85.70
2023-04-30T16:17:39.895Z,86.50
2023-04-30T16:21:41.877Z,85.30
2023-04-30T16:25:43.862Z,83.30
2023-04-30T16:29:46.009Z,84.20
2023-04-30T16:33:48.244Z,83.30
2023-04-30T16:37:50.217Z,84.00
2023-04-30T16:41:52.032Z,85.50
2023-04-30T16:45:53.907Z,86.80
2023-04-30T16:49:56.992Z,83.40
2023-04-30T16:53:59.058Z,83.10
2023-04-30T16:58:01.215Z,84.10
2023-04-30T17:02:04.008Z,84.30
2023-04-30T17:06:06.888Z,84.90
2023-04-30T17:10:09.590Z,84.20
2023-04-30T17:14:11.844Z,84.60
2023-04-30T17:18:15.186Z,85.40
2023-04-30T17:22:20.034Z,84.60
2023-04-30T17:26:23.685Z,84.70
2023-04-30T17:30:26.927Z,84.50
2023-04-30T17:34:28.989Z,85.20
2023-04-30T17:38:30.857Z,86.10
2023-04-30T17:42:34.080Z,87.10
2023-04-30T17:46:36.001Z,86.70
2023-04-30T17:50:38.036Z,87.80
2023-04-30T17:54:40.096Z,87.50
2023-04-30T17:58:42.078Z,86.70
2023-04-30T18:02:44.398Z,87.50
2023-04-30T18:06:48.382Z,87.10
2023-04-30T18:10:51.553Z,87.10
2023-04-30T18:14:53.500Z,86.90
2023-04-30T18:18:55.489Z,87.90
2023-04-30T18:22:57.562Z,86.20
2023-04-30T18:26:59.593Z,88.00
2023-04-30T18:31:02.269Z,88.60
2023-04-30T18:35:04.791Z,88.20
2023-04-30T18:39:07.098Z,87.70
2023-04-30T18:43:09.390Z,89.40
2023-04-30T18:47:11.763Z,89.80
2023-04-30T18:51:13.601Z,89.80
2023-04-30T18:55:15.610Z,90.10
2023-04-30T18:59:19.280Z,90.60
2023-04-30T19:03:21.321Z,90.20
2023-04-30T19:07:23.265Z,90.70
2023-04-30T19:11:25.466Z,90.90
2023-04-30T19:15:29.602Z,91.30
2023-04-30T19:19:31.427Z,91.10
2023-04-30T19:23:33.464Z,91.30
2023-04-30T19:27:35.671Z,91.20
2023-04-30T19:31:37.808Z,91.60
2023-04-30T19:35:40.181Z,91.30
2023-04-30T19:39:41.974Z,91.70
2023-04-30T19:43:43.823Z,91.50
2023-04-30T19:47:45.836Z,91.60
2023-04-30T19:51:47.780Z,91.80
2023-04-30T19:55:51.895Z,92.00
2023-04-30T19:59:54.086Z,91.90
2023-04-30T20:03:56.461Z,92.00
2023-04-30T20:07:59.502Z,92.30
2023-04-30T20:12:02.787Z,92.30
2023-04-30T20:16:04.817Z,92.50
2023-04-30T20:20:07.203Z,92.50
2023-04-30T20:24:11.036Z,92.50
2023-04-30T20:28:14.568Z,92.80
2023-04-30T20:32:16.940Z,93.10
2023-04-30T20:36:20.395Z,93.40
2023-04-30T20:40:22.631Z,93.60
2023-04-30T20:44:26.742Z,93.70
2023-04-30T20:48:28.681Z,93.70
2023-04-30T20:52:30.517Z,93.80
2023-04-30T20:56:32.771Z,93.80
2023-04-30T21:00:34.892Z,93.90
2023-04-30T21:04:37.170Z,94.00
2023-04-30T21:08:39.236Z,94.20
2023-04-30T21:12:41.407Z,94.30
2023-04-30T21:16:43.858Z,94.30
2023-04-30T21:20:46.081Z,94.40
2023-04-30T21:24:48.021Z,94.20
2023-04-30T21:28:52.418Z,94.50
2023-04-30T21:32:58.437Z,94.40
2023-04-30T21:37:00.837Z,94.50
2023-04-30T21:41:03.634Z,94.60
2023-04-30T21:45:06.189Z,94.70
2023-04-30T21:49:08.083Z,94.70
2023-04-30T21:53:10.371Z,94.90
2023-04-30T21:57:12.141Z,94.90
2023-04-30T22:01:13.917Z,94.60
2023-04-30T22:05:16.665Z,94.80
2023-04-30T22:09:18.739Z,94.90
2023-04-30T22:13:20.832Z,95.00
2023-04-30T22:17:23.255Z,95.00
2023-04-30T22:21:25.812Z,94.90
2023-04-30T22:25:27.747Z,94.90
2023-04-30T22:29:29.957Z,94.90
2023-04-30T22:33:36.171Z,94.90
2023-04-30T22:37:40.801Z,94.90
2023-04-30T22:41:46.628Z,94.70
2023-04-30T22:45:48.783Z,94.90
2023-04-30T22:49:50.919Z,95.00
2023-04-30T22:53:55.371Z,95.00
2023-04-30T22:57:59.732Z,94.80
2023-04-30T23:02:01.554Z,94.70
2023-04-30T23:06:03.498Z,95.00
2023-04-30T23:10:06.215Z,94.70
2023-04-30T23:14:09.745Z,94.80
2023-04-30T23:18:12.005Z,95.20
2023-04-30T23:22:13.876Z,95.10
2023-04-30T23:26:16.618Z,95.20
2023-04-30T23:30:18.620Z,95.10
2023-04-30T23:34:21.122Z,95.00
2023-04-30T23:38:23.209Z,95.00
2023-04-30T23:42:25.119Z,95.10
2023-04-30T23:46:27.137Z,95.10
2023-04-30T23:50:29.019Z,95.20
2023-04-30T23:54:30.918Z,95.40
2023-04-30T23:58:32.788Z,95.20
